sensor_id;sensor_type;location;lat;lon;timestamp;pressure;altitude;pressure_sealevel;temperature;humidity
44385;BME280;30101;32.778;34.994;2022-07-29T00:00:57;96946.31;;;24.79;77.60
44385;BME280;30101;32.778;34.994;2022-07-29T00:06:01;96940.72;;;24.84;77.78
44385;BME280;30101;32.778;34.994;2022-07-29T00:11:05;96955.63;;;24.86;77.63
44385;BME280;30101;32.778;34.994;2022-07-29T00:16:08;96947.91;;;24.88;77.90
44385;BME280;30101;32.778;34.994;2022-07-29T00:21:12;96953.06;;;24.90;78.23
44385;BME280;30101;32.778;34.994;2022-07-29T00:26:16;96950.34;;;24.90;78.91
44385;BME280;30101;32.778;34.994;2022-07-29T00:31:20;96958.84;;;24.88;78.84
44385;BME280;30101;32.778;34.994;2022-07-29T00:36:24;96961.56;;;24.88;79.34
44385;BME280;30101;32.778;34.994;2022-07-29T00:41:28;96968.94;;;24.88;79.79
44385;BME280;30101;32.778;34.994;2022-07-29T00:46:35;96965.09;;;24.89;80.09
44385;BME280;30101;32.778;34.994;2022-07-29T00:51:41;96965.09;;;24.89;80.31
44385;BME280;30101;32.778;34.994;2022-07-29T00:56:49;96968.16;;;24.87;80.37
44385;BME280;30101;32.778;34.994;2022-07-29T01:01:53;96970.88;;;24.87;80.63
44385;BME280;30101;32.778;34.994;2022-07-29T01:07:04;96963.50;;;24.88;80.82
44385;BME280;30101;32.778;34.994;2022-07-29T01:12:07;96973.94;;;24.86;80.63
44385;BME280;30101;32.778;34.994;2022-07-29T01:23:08;96975.69;;;24.82;81.12
44385;BME280;30101;32.778;34.994;2022-07-29T01:34:03;96975.06;;;24.76;81.50
44385;BME280;30101;32.778;34.994;2022-07-29T01:39:11;96969.91;;;24.74;81.36
44385;BME280;30101;32.778;34.994;2022-07-29T01:44:20;96970.56;;;24.71;81.87
44385;BME280;30101;32.778;34.994;2022-07-29T01:49:31;96968.16;;;24.70;81.65
44385;BME280;30101;32.778;34.994;2022-07-29T01:54:58;96969.28;;;24.69;81.65
44385;BME280;30101;32.778;34.994;2022-07-29T02:00:06;96976.03;;;24.71;82.06
44385;BME280;30101;32.778;34.994;2022-07-29T02:05:19;96972.50;;;24.71;81.90
44385;BME280;30101;32.778;34.994;2022-07-29T02:10:26;96967.84;;;24.71;82.39
44385;BME280;30101;32.778;34.994;2022-07-29T02:15:32;96977.78;;;24.76;82.11
44385;BME280;30101;32.778;34.994;2022-07-29T02:20:38;96975.88;;;24.77;82.47
44385;BME280;30101;32.778;34.994;2022-07-29T02:25:42;96970.44;;;24.77;82.43
44385;BME280;30101;32.778;34.994;2022-07-29T02:30:49;96962.69;;;24.79;82.64
44385;BME280;30101;32.778;34.994;2022-07-29T02:35:55;96969.91;;;24.74;82.45
44385;BME280;30101;32.778;34.994;2022-07-29T02:41:04;96970.56;;;24.71;82.75
44385;BME280;30101;32.778;34.994;2022-07-29T02:46:31;96968.97;;;24.70;83.20
44385;BME280;30101;32.778;34.994;2022-07-29T02:51:49;96971.06;;;24.65;83.28
44385;BME280;30101;32.778;34.994;2022-07-29T02:56:55;96961.75;;;24.66;83.30
44385;BME280;30101;32.778;34.994;2022-07-29T03:02:03;96969.13;;;24.65;83.50
44385;BME280;30101;32.778;34.994;2022-07-29T03:07:09;96976.50;;;24.65;83.34
44385;BME280;30101;32.778;34.994;2022-07-29T03:12:14;96959.63;;;24.63;83.66
44385;BME280;30101;32.778;34.994;2022-07-29T03:17:20;96967.03;;;24.62;83.21
44385;BME280;30101;32.778;34.994;2022-07-29T03:22:25;96973.59;;;24.61;83.28
44385;BME280;30101;32.778;34.994;2022-07-29T03:27:28;96967.34;;;24.61;83.45
44385;BME280;30101;32.778;34.994;2022-07-29T03:32:32;96974.75;;;24.60;83.40
44385;BME280;30101;32.778;34.994;2022-07-29T03:37:36;96973.59;;;24.61;83.77
44385;BME280;30101;32.778;34.994;2022-07-29T03:42:40;96976.50;;;24.65;83.67
44385;BME280;30101;32.778;34.994;2022-07-29T03:47:49;96985.97;;;24.67;83.63
44385;BME280;30101;32.778;34.994;2022-07-29T03:52:59;96984.84;;;24.68;83.53
44385;BME280;30101;32.778;34.994;2022-07-29T03:58:04;96995.63;;;24.73;83.83
44385;BME280;30101;32.778;34.994;2022-07-29T04:03:14;96998.66;;;24.81;83.69
44385;BME280;30101;32.778;34.994;2022-07-29T04:08:18;97006.56;;;24.91;83.89
44385;BME280;30101;32.778;34.994;2022-07-29T04:13:21;97013.31;;;25.02;83.45
44385;BME280;30101;32.778;34.994;2022-07-29T04:18:25;97013.00;;;25.12;83.20
44385;BME280;30101;32.778;34.994;2022-07-29T04:23:29;97015.91;;;25.33;83.31
44385;BME280;30101;32.778;34.994;2022-07-29T04:28:33;97021.13;;;25.55;82.91
44385;BME280;30101;32.778;34.994;2022-07-29T04:33:36;97026.56;;;25.81;82.22
44385;BME280;30101;32.778;34.994;2022-07-29T04:38:40;97029.06;;;26.04;82.12
44385;BME280;30101;32.778;34.994;2022-07-29T04:43:44;97029.69;;;26.09;81.63
44385;BME280;30101;32.778;34.994;2022-07-29T04:48:47;97038.22;;;26.08;81.58
44385;BME280;30101;32.778;34.994;2022-07-29T04:53:51;97039.34;;;26.07;81.50
44385;BME280;30101;32.778;34.994;2022-07-29T04:58:55;97044.03;;;26.06;81.61
44385;BME280;30101;32.778;34.994;2022-07-29T05:03:58;97043.69;;;26.08;81.26
44385;BME280;30101;32.778;34.994;2022-07-29T05:09:03;97049.31;;;26.12;81.38
44385;BME280;30101;32.778;34.994;2022-07-29T05:14:06;97052.22;;;26.15;81.03
44385;BME280;30101;32.778;34.994;2022-07-29T05:19:10;97049.75;;;26.22;80.96
44385;BME280;30101;32.778;34.994;2022-07-29T05:24:16;97052.13;;;26.32;80.18
44385;BME280;30101;32.778;34.994;2022-07-29T05:29:20;97050.00;;;26.47;80.14
44385;BME280;30101;32.778;34.994;2022-07-29T05:34:43;97053.09;;;26.66;79.47
44385;BME280;30101;32.778;34.994;2022-07-29T05:39:53;97056.78;;;27.75;75.91
44385;BME280;30101;32.778;34.994;2022-07-29T05:44:59;97063.22;;;28.03;74.69
44385;BME280;30101;32.778;34.994;2022-07-29T05:50:06;97068.97;;;28.10;75.04
44385;BME280;30101;32.778;34.994;2022-07-29T05:55:16;97057.88;;;28.19;74.61
44385;BME280;30101;32.778;34.994;2022-07-29T06:00:20;97068.56;;;28.33;74.16
44385;BME280;30101;32.778;34.994;2022-07-29T06:05:23;97077.03;;;28.40;74.01
44385;BME280;30101;32.778;34.994;2022-07-29T06:10:27;97082.19;;;28.54;73.77
44385;BME280;30101;32.778;34.994;2022-07-29T06:15:32;97081.28;;;28.74;73.49
44385;BME280;30101;32.778;34.994;2022-07-29T06:20:36;97085.97;;;28.98;72.61
44385;BME280;30101;32.778;34.994;2022-07-29T06:25:40;97087.84;;;29.22;71.92
44385;BME280;30101;32.778;34.994;2022-07-29T06:30:43;97089.03;;;29.61;71.16
44385;BME280;30101;32.778;34.994;2022-07-29T06:35:47;97078.19;;;31.65;65.27
44385;BME280;30101;32.778;34.994;2022-07-29T06:40:55;97081.53;;;34.50;58.34
44385;BME280;30101;32.778;34.994;2022-07-29T06:46:04;97081.66;;;36.95;52.79
44385;BME280;30101;32.778;34.994;2022-07-29T06:51:10;97096.19;;;38.44;49.99
44385;BME280;30101;32.778;34.994;2022-07-29T06:56:13;97094.19;;;38.45;49.93
44385;BME280;30101;32.778;34.994;2022-07-29T07:01:17;97095.59;;;38.12;50.83
44385;BME280;30101;32.778;34.994;2022-07-29T07:06:20;97100.56;;;37.68;52.14
44385;BME280;30101;32.778;34.994;2022-07-29T07:11:24;97101.91;;;37.35;52.70
44385;BME280;30101;32.778;34.994;2022-07-29T07:16:28;97097.84;;;37.50;51.97
44385;BME280;30101;32.778;34.994;2022-07-29T07:21:32;97099.41;;;37.66;51.11
44385;BME280;30101;32.778;34.994;2022-07-29T07:26:35;97117.47;;;38.13;49.57
44385;BME280;30101;32.778;34.994;2022-07-29T07:31:39;97106.13;;;38.49;48.22
44385;BME280;30101;32.778;34.994;2022-07-29T07:36:43;97111.44;;;38.29;48.81
44385;BME280;30101;32.778;34.994;2022-07-29T07:41:49;97114.78;;;37.95;48.90
44385;BME280;30101;32.778;34.994;2022-07-29T07:46:54;97115.81;;;37.35;50.05
44385;BME280;30101;32.778;34.994;2022-07-29T07:51:57;97121.41;;;36.64;50.96
44385;BME280;30101;32.778;34.994;2022-07-29T07:57:01;97119.38;;;36.18;52.18
44385;BME280;30101;32.778;34.994;2022-07-29T08:02:05;97127.91;;;35.70;52.68
44385;BME280;30101;32.778;34.994;2022-07-29T08:07:09;97119.81;;;35.36;53.21
44385;BME280;30101;32.778;34.994;2022-07-29T08:12:15;97122.44;;;35.08;53.84
44385;BME280;30101;32.778;34.994;2022-07-29T08:17:19;97124.56;;;34.77;54.30
44385;BME280;30101;32.778;34.994;2022-07-29T08:22:23;97129.94;;;34.59;53.88
44385;BME280;30101;32.778;34.994;2022-07-29T08:27:27;97135.69;;;34.40;54.66
44385;BME280;30101;32.778;34.994;2022-07-29T08:32:48;97129.75;;;34.42;54.37
44385;BME280;30101;32.778;34.994;2022-07-29T08:37:57;97112.22;;;34.30;54.47
44385;BME280;30101;32.778;34.994;2022-07-29T08:43:08;97120.53;;;34.27;55.05
44385;BME280;30101;32.778;34.994;2022-07-29T08:48:16;97116.44;;;34.17;55.15
44385;BME280;30101;32.778;34.994;2022-07-29T08:53:21;97118.81;;;34.15;55.02
44385;BME280;30101;32.778;34.994;2022-07-29T08:58:25;97108.13;;;34.14;54.84
44385;BME280;30101;32.778;34.994;2022-07-29T09:03:31;97117.13;;;34.03;54.63
44385;BME280;30101;32.778;34.994;2022-07-29T09:08:35;97111.91;;;33.98;54.69
44385;BME280;30101;32.778;34.994;2022-07-29T09:13:39;97112.97;;;33.90;54.54
44385;BME280;30101;32.778;34.994;2022-07-29T09:18:44;97102.53;;;33.76;54.22
44385;BME280;30101;32.778;34.994;2022-07-29T09:24:12;97106.47;;;33.75;54.37
44385;BME280;30101;32.778;34.994;2022-07-29T09:29:22;97102.34;;;33.62;53.92
44385;BME280;30101;32.778;34.994;2022-07-29T09:34:28;97110.47;;;33.44;54.64
44385;BME280;30101;32.778;34.994;2022-07-29T09:39:37;97102.81;;;33.38;54.49
44385;BME280;30101;32.778;34.994;2022-07-29T09:44:49;97104.50;;;33.16;54.65
44385;BME280;30101;32.778;34.994;2022-07-29T09:49:57;97112.50;;;32.94;55.47
44385;BME280;30101;32.778;34.994;2022-07-29T09:55:05;97103.22;;;32.83;55.52
44385;BME280;30101;32.778;34.994;2022-07-29T10:00:12;97107.78;;;32.72;55.50
44385;BME280;30101;32.778;34.994;2022-07-29T10:10:30;97098.00;;;32.78;55.40
44385;BME280;30101;32.778;34.994;2022-07-29T10:15:37;97106.56;;;32.69;55.39
44385;BME280;30101;32.778;34.994;2022-07-29T10:20:41;97082.78;;;32.65;55.61
44385;BME280;30101;32.778;34.994;2022-07-29T10:25:45;97087.81;;;32.59;55.43
44385;BME280;30101;32.778;34.994;2022-07-29T10:30:50;97085.69;;;32.49;55.87
44385;BME280;30101;32.778;34.994;2022-07-29T10:46:50;97072.59;;;32.23;56.17
44385;BME280;30101;32.778;34.994;2022-07-29T10:52:08;97063.25;;;32.08;56.48
44385;BME280;30101;32.778;34.994;2022-07-29T10:57:29;97073.03;;;32.02;56.30
44385;BME280;30101;32.778;34.994;2022-07-29T11:02:52;97063.13;;;32.01;56.41
44385;BME280;30101;32.778;34.994;2022-07-29T11:24:18;97051.31;;;32.01;56.13
44385;BME280;30101;32.778;34.994;2022-07-29T11:29:51;97050.31;;;31.89;56.57
44385;BME280;30101;32.778;34.994;2022-07-29T11:40:20;97036.88;;;31.68;56.48
44385;BME280;30101;32.778;34.994;2022-07-29T11:45:25;97042.56;;;31.56;56.89
44385;BME280;30101;32.778;34.994;2022-07-29T11:50:49;97036.69;;;31.38;57.24
44385;BME280;30101;32.778;34.994;2022-07-29T11:55:55;97036.53;;;31.31;57.20
44385;BME280;30101;32.778;34.994;2022-07-29T12:01:00;97031.31;;;31.26;57.59
44385;BME280;30101;32.778;34.994;2022-07-29T12:06:24;97026.84;;;31.22;57.79
44385;BME280;30101;32.778;34.994;2022-07-29T12:11:28;97027.78;;;31.10;57.03
44385;BME280;30101;32.778;34.994;2022-07-29T12:16:38;97028.66;;;30.95;57.35
44385;BME280;30101;32.778;34.994;2022-07-29T12:21:53;97020.66;;;30.89;57.61
44385;BME280;30101;32.778;34.994;2022-07-29T12:27:04;97029.13;;;30.81;58.46
44385;BME280;30101;32.778;34.994;2022-07-29T12:32:09;97024.75;;;30.80;58.08
44385;BME280;30101;32.778;34.994;2022-07-29T12:37:21;97018.91;;;30.81;58.62
44385;BME280;30101;32.778;34.994;2022-07-29T12:43:06;97029.31;;;30.72;58.68
44385;BME280;30101;32.778;34.994;2022-07-29T12:48:10;97027.75;;;30.55;58.72
44385;BME280;30101;32.778;34.994;2022-07-29T12:53:14;97024.09;;;30.51;59.32
44385;BME280;30101;32.778;34.994;2022-07-29T12:58:33;97020.91;;;30.49;58.85
44385;BME280;30101;32.778;34.994;2022-07-29T13:04:04;97020.13;;;30.49;59.78
44385;BME280;30101;32.778;34.994;2022-07-29T13:09:19;97018.44;;;30.44;59.71
44385;BME280;30101;32.778;34.994;2022-07-29T13:14:44;97010.25;;;30.32;60.12
44385;BME280;30101;32.778;34.994;2022-07-29T13:19:50;97009.56;;;30.19;60.62
44385;BME280;30101;32.778;34.994;2022-07-29T13:30:02;97020.19;;;30.05;60.29
44385;BME280;30101;32.778;34.994;2022-07-29T13:35:07;97012.09;;;29.96;60.29
44385;BME280;30101;32.778;34.994;2022-07-29T13:40:12;97007.41;;;29.97;60.93
44385;BME280;30101;32.778;34.994;2022-07-29T13:45:16;97008.91;;;29.94;60.80
44385;BME280;30101;32.778;34.994;2022-07-29T13:50:19;97007.66;;;29.92;61.26
44385;BME280;30101;32.778;34.994;2022-07-29T13:55:23;97007.56;;;29.88;61.05
44385;BME280;30101;32.778;34.994;2022-07-29T14:00:26;97012.72;;;29.90;61.58
44385;BME280;30101;32.778;34.994;2022-07-29T14:05:29;97005.25;;;29.90;61.65
44385;BME280;30101;32.778;34.994;2022-07-29T14:10:33;97007.94;;;29.87;61.59
44385;BME280;30101;32.778;34.994;2022-07-29T14:15:40;97011.75;;;29.82;61.25
44385;BME280;30101;32.778;34.994;2022-07-29T14:20:45;97012.00;;;29.77;61.63
44385;BME280;30101;32.778;34.994;2022-07-29T14:25:48;97028.06;;;29.75;61.64
44385;BME280;30101;32.778;34.994;2022-07-29T14:30:52;97024.06;;;29.72;61.78
44385;BME280;30101;32.778;34.994;2022-07-29T14:35:55;97025.75;;;29.61;61.40
44385;BME280;30101;32.778;34.994;2022-07-29T14:41:03;97016.47;;;29.53;62.00
44385;BME280;30101;32.778;34.994;2022-07-29T14:46:07;97011.56;;;29.47;62.12
44385;BME280;30101;32.778;34.994;2022-07-29T14:51:11;97002.16;;;29.48;62.58
44385;BME280;30101;32.778;34.994;2022-07-29T14:56:14;97006.78;;;29.44;62.36
44385;BME280;30101;32.778;34.994;2022-07-29T15:58:54;96996.16;;;27.22;66.21
44385;BME280;30101;32.778;34.994;2022-07-29T16:03:58;97009.34;;;26.99;67.34
44385;BME280;30101;32.778;34.994;2022-07-29T16:09:01;97008.69;;;26.60;68.84
44385;BME280;30101;32.778;34.994;2022-07-29T16:14:06;97003.66;;;26.42;69.71
44385;BME280;30101;32.778;34.994;2022-07-29T16:19:11;97006.25;;;26.29;70.50
44385;BME280;30101;32.778;34.994;2022-07-29T16:24:15;97001.50;;;26.18;71.33
44385;BME280;30101;32.778;34.994;2022-07-29T16:29:18;97007.00;;;26.09;71.68
44385;BME280;30101;32.778;34.994;2022-07-29T16:34:22;97006.84;;;26.05;72.12
44385;BME280;30101;32.778;34.994;2022-07-29T16:39:25;97012.84;;;25.99;72.57
44385;BME280;30101;32.778;34.994;2022-07-29T16:44:31;97017.38;;;25.86;73.45
44385;BME280;30101;32.778;34.994;2022-07-29T16:49:34;97017.38;;;25.86;73.53
44385;BME280;30101;32.778;34.994;2022-07-29T16:54:38;97014.50;;;25.82;73.67
44385;BME280;30101;32.778;34.994;2022-07-29T16:59:42;97015.34;;;25.74;74.24
44385;BME280;30101;32.778;34.994;2022-07-29T17:04:46;97009.53;;;25.67;74.93
44385;BME280;30101;32.778;34.994;2022-07-29T17:09:50;97012.59;;;25.66;75.33
44385;BME280;30101;32.778;34.994;2022-07-29T17:14:58;97010.84;;;25.61;75.28
44385;BME280;30101;32.778;34.994;2022-07-29T17:20:07;97012.31;;;25.59;75.79
44385;BME280;30101;32.778;34.994;2022-07-29T17:25:10;97017.94;;;25.53;75.56
44385;BME280;30101;32.778;34.994;2022-07-29T17:30:23;97027.41;;;25.56;75.95
44385;BME280;30101;32.778;34.994;2022-07-29T17:35:27;97043.81;;;25.56;75.97
44385;BME280;30101;32.778;34.994;2022-07-29T17:40:30;97039.47;;;25.55;76.66
44385;BME280;30101;32.778;34.994;2022-07-29T17:45:34;97052.69;;;25.53;77.10
44385;BME280;30101;32.778;34.994;2022-07-29T17:50:52;97051.72;;;25.49;76.86
44385;BME280;30101;32.778;34.994;2022-07-29T17:55:56;97055.72;;;25.51;77.32
44385;BME280;30101;32.778;34.994;2022-07-29T18:00:59;97061.50;;;25.50;77.52
44385;BME280;30101;32.778;34.994;2022-07-29T18:06:03;97066.97;;;25.50;77.65
44385;BME280;30101;32.778;34.994;2022-07-29T18:11:07;97072.78;;;25.48;77.57
44385;BME280;30101;32.778;34.994;2022-07-29T18:16:17;97075.19;;;25.50;77.86
44385;BME280;30101;32.778;34.994;2022-07-29T18:21:21;97078.72;;;25.50;77.64
44385;BME280;30101;32.778;34.994;2022-07-29T18:26:45;97068.28;;;25.44;78.34
44385;BME280;30101;32.778;34.994;2022-07-29T18:31:49;97064.41;;;25.45;78.74
44385;BME280;30101;32.778;34.994;2022-07-29T18:36:53;97068.28;;;25.44;78.65
44385;BME280;30101;32.778;34.994;2022-07-29T18:41:57;97067.94;;;25.45;78.30
44385;BME280;30101;32.778;34.994;2022-07-29T18:47:00;97072.31;;;25.46;78.75
44385;BME280;30101;32.778;34.994;2022-07-29T18:52:05;97066.84;;;25.46;78.76
44385;BME280;30101;32.778;34.994;2022-07-29T18:57:08;97066.84;;;25.46;78.92
44385;BME280;30101;32.778;34.994;2022-07-29T19:02:33;97076.13;;;25.45;78.76
44385;BME280;30101;32.778;34.994;2022-07-29T19:07:36;97081.13;;;25.43;78.74
44385;BME280;30101;32.778;34.994;2022-07-29T19:12:40;97085.00;;;25.42;78.84
44385;BME280;30101;32.778;34.994;2022-07-29T19:17:44;97082.44;;;25.46;78.71
44385;BME280;30101;32.778;34.994;2022-07-29T19:22:48;97083.25;;;25.46;79.13
44385;BME280;30101;32.778;34.994;2022-07-29T19:27:52;97074.22;;;25.46;78.92
44385;BME280;30101;32.778;34.994;2022-07-29T19:32:55;97072.94;;;25.43;79.26
44385;BME280;30101;32.778;34.994;2022-07-29T19:38:01;97080.34;;;25.43;79.08
44385;BME280;30101;32.778;34.994;2022-07-29T19:43:04;97070.06;;;25.40;79.40
44385;BME280;30101;32.778;34.994;2022-07-29T19:48:28;97064.91;;;25.38;79.39
44385;BME280;30101;32.778;34.994;2022-07-29T19:53:32;97067.63;;;25.38;79.66
44385;BME280;30101;32.778;34.994;2022-07-29T19:58:36;97072.28;;;25.38;79.20
44385;BME280;30101;32.778;34.994;2022-07-29T20:03:39;97073.59;;;25.40;79.36
44385;BME280;30101;32.778;34.994;2022-07-29T20:08:43;97066.50;;;25.39;79.65
44385;BME280;30101;32.778;34.994;2022-07-29T20:13:46;97066.19;;;25.41;79.45
44385;BME280;30101;32.778;34.994;2022-07-29T20:18:50;97068.13;;;25.40;79.53
44385;BME280;30101;32.778;34.994;2022-07-29T20:23:53;97066.50;;;25.39;79.66
44385;BME280;30101;32.778;34.994;2022-07-29T20:28:57;97070.34;;;25.38;79.49
44385;BME280;30101;32.778;34.994;2022-07-29T20:34:01;97066.81;;;25.38;79.89
44385;BME280;30101;32.778;34.994;2022-07-29T20:39:06;97054.63;;;25.35;80.03
44385;BME280;30101;32.778;34.994;2022-07-29T20:44:10;97055.75;;;25.34;80.07
44385;BME280;30101;32.778;34.994;2022-07-29T20:49:15;97053.03;;;25.34;79.71
44385;BME280;30101;32.778;34.994;2022-07-29T20:54:19;97052.22;;;25.34;79.90
44385;BME280;30101;32.778;34.994;2022-07-29T20:59:22;97054.16;;;25.33;79.89
44385;BME280;30101;32.778;34.994;2022-07-29T21:04:26;97059.91;;;25.32;79.94
44385;BME280;30101;32.778;34.994;2022-07-29T21:09:33;97054.31;;;25.28;80.00
44385;BME280;30101;32.778;34.994;2022-07-29T21:14:37;97054.59;;;25.26;80.05
44385;BME280;30101;32.778;34.994;2022-07-29T21:19:40;97041.94;;;25.22;80.00
44385;BME280;30101;32.778;34.994;2022-07-29T21:24:45;97044.97;;;25.20;80.10
44385;BME280;30101;32.778;34.994;2022-07-29T21:29:49;97031.31;;;25.20;80.20
44385;BME280;30101;32.778;34.994;2022-07-29T21:34:53;97022.63;;;25.18;80.11
44385;BME280;30101;32.778;34.994;2022-07-29T21:39:57;97016.38;;;25.18;80.25
44385;BME280;30101;32.778;34.994;2022-07-29T21:45:00;97020.22;;;25.17;80.71
44385;BME280;30101;32.778;34.994;2022-07-29T21:50:05;97018.63;;;25.16;80.48
44385;BME280;30101;32.778;34.994;2022-07-29T21:55:09;97010.78;;;25.14;80.50
44385;BME280;30101;32.778;34.994;2022-07-29T22:00:14;97012.38;;;25.15;80.82
44385;BME280;30101;32.778;34.994;2022-07-29T22:05:18;97003.84;;;25.17;80.49
44385;BME280;30101;32.778;34.994;2022-07-29T22:10:22;96999.84;;;25.14;80.92
44385;BME280;30101;32.778;34.994;2022-07-29T22:15:26;97008.03;;;25.14;80.94
44385;BME280;30101;32.778;34.994;2022-07-29T22:20:30;97004.00;;;25.12;80.66
44385;BME280;30101;32.778;34.994;2022-07-29T22:25:33;97000.81;;;25.10;80.85
44385;BME280;30101;32.778;34.994;2022-07-29T22:30:36;97001.13;;;25.08;80.84
44385;BME280;30101;32.778;34.994;2022-07-29T22:35:40;97001.94;;;25.09;80.87
44385;BME280;30101;32.778;34.994;2022-07-29T22:40:44;96999.19;;;25.09;81.10
44385;BME280;30101;32.778;34.994;2022-07-29T22:45:50;96995.34;;;25.10;80.98
44385;BME280;30101;32.778;34.994;2022-07-29T22:50:54;96994.53;;;25.09;81.28
44385;BME280;30101;32.778;34.994;2022-07-29T22:55:57;96995.66;;;25.08;80.82
44385;BME280;30101;32.778;34.994;2022-07-29T23:01:01;96991.63;;;25.06;80.88
44385;BME280;30101;32.778;34.994;2022-07-29T23:06:06;96992.44;;;25.06;81.49
44385;BME280;30101;32.778;34.994;2022-07-29T23:11:09;96997.09;;;25.06;81.17
44385;BME280;30101;32.778;34.994;2022-07-29T23:16:13;96991.13;;;25.03;81.15
44385;BME280;30101;32.778;34.994;2022-07-29T23:21:28;96988.22;;;25.00;81.32
44385;BME280;30101;32.778;34.994;2022-07-29T23:26:32;96986.97;;;24.97;80.90
44385;BME280;30101;32.778;34.994;2022-07-29T23:31:35;96988.38;;;24.95;80.92
44385;BME280;30101;32.778;34.994;2022-07-29T23:36:47;96986.94;;;24.89;80.99
44385;BME280;30101;32.778;34.994;2022-07-29T23:41:51;96992.41;;;24.89;80.87
44385;BME280;30101;32.778;34.994;2022-07-29T23:46:54;96987.59;;;24.86;81.11
44385;BME280;30101;32.778;34.994;2022-07-29T23:51:57;96982.47;;;24.84;81.32
44385;BME280;30101;32.778;34.994;2022-07-29T23:57:02;96978.44;;;24.82;81.40
